createdAt,value
2022-11-03T02:20:34.992Z,58.13
2022-11-03T02:23:31.573Z,53.30
2022-11-03T02:25:59.271Z,54.33
2022-11-03T02:28:31.076Z,60.47
2022-11-03T02:31:17.376Z,57.60
2022-11-03T02:33:54.869Z,60.45
2022-11-03T02:36:32.861Z,63.45
2022-11-03T02:39:11.882Z,57.30
2022-11-03T02:41:39.890Z,61.35
2022-11-03T02:44:14.895Z,62.97
2022-11-03T02:46:43.926Z,69.00
2022-11-03T02:49:11.730Z,69.90
2022-11-03T02:51:39.859Z,60.28
2022-11-03T02:54:23.723Z,56.88
2022-11-03T02:57:01.147Z,62.53
2022-11-03T02:59:31.247Z,64.28
2022-11-03T03:02:09.369Z,47.47
2022-11-03T03:04:43.849Z,59.40
2022-11-03T03:07:15.231Z,61.42
2022-11-03T03:10:10.847Z,61.60
2022-11-03T03:12:40.277Z,69.13
2022-11-03T03:15:08.795Z,67.30
2022-11-03T03:18:06.611Z,69.22
2022-11-03T03:20:42.145Z,65.93
2022-11-03T03:23:14.941Z,62.10
2022-11-03T03:25:50.175Z,79.65
2022-11-03T03:28:31.297Z,75.13
2022-11-03T03:30:59.072Z,46.78
2022-11-03T03:35:54.914Z,64.78
2022-11-03T03:38:25.476Z,60.85
2022-11-03T03:40:55.452Z,61.58
2022-11-03T03:43:23.676Z,64.85
2022-11-03T03:45:52.710Z,64.30
2022-11-03T03:48:20.583Z,59.08
2022-11-03T03:50:49.975Z,45.35
2022-11-03T03:53:18.928Z,58.70
2022-11-03T03:55:49.740Z,59.40
2022-11-03T03:58:17.704Z,62.85
2022-11-03T04:00:45.635Z,61.20
2022-11-03T04:03:16.703Z,59.42
2022-11-03T04:05:45.021Z,67.18
2022-11-03T04:08:14.585Z,58.95
2022-11-03T04:11:02.433Z,65.60
2022-11-03T04:13:48.850Z,57.10
2022-11-03T04:16:36.990Z,59.35
2022-11-03T04:19:25.079Z,56.08
2022-11-03T04:22:11.207Z,57.30
2022-11-03T04:24:39.461Z,61.45
2022-11-03T04:27:37.101Z,66.10
2022-11-03T04:30:16.618Z,62.97
2022-11-03T04:32:45.477Z,67.68
2022-11-03T04:35:24.528Z,56.92
2022-11-03T04:38:02.480Z,50.33
2022-11-03T04:40:30.509Z,59.38
2022-11-03T04:42:58.719Z,62.08
2022-11-03T04:45:31.727Z,52.42
2022-11-03T04:48:00.630Z,59.83
2022-11-03T04:50:28.818Z,54.25
2022-11-03T04:52:58.774Z,59.90
2022-11-03T04:55:27.040Z,52.67
2022-11-03T04:58:00.950Z,56.33
2022-11-03T05:00:29.068Z,54.20
2022-11-03T05:02:57.746Z,47.83
2022-11-03T05:05:26.743Z,57.13
2022-11-03T05:07:56.202Z,53.17
2022-11-03T05:10:28.648Z,55.67
2022-11-03T05:12:58.109Z,50.83
2022-11-03T05:15:35.883Z,54.60
2022-11-03T05:18:28.903Z,45.78
2022-11-03T05:21:00.472Z,47.42
2022-11-03T05:25:57.841Z,51.50
2022-11-03T05:28:28.853Z,51.30
2022-11-03T05:30:56.787Z,48.10
2022-11-03T05:33:29.484Z,50.30
2022-11-03T05:35:59.870Z,53.40
2022-11-03T05:38:30.882Z,79.07
2022-11-03T05:40:59.290Z,51.75
2022-11-03T05:43:27.407Z,48.90
2022-11-03T05:45:57.422Z,51.22
2022-11-03T05:48:35.560Z,50.47
2022-11-03T05:51:21.582Z,56.05
2022-11-03T05:53:57.633Z,52.30
2022-11-03T05:56:25.596Z,52.72
2022-11-03T05:58:57.440Z,54.47
2022-11-03T06:01:33.413Z,54.50
2022-11-03T06:04:23.257Z,53.80
2022-11-03T06:06:56.483Z,46.63
2022-11-03T06:09:24.860Z,54.45
2022-11-03T06:11:58.073Z,308.17
2022-11-03T06:14:27.807Z,129.82
2022-11-03T06:17:02.034Z,45.50
2022-11-03T06:19:34.685Z,54.38
2022-11-03T06:22:08.732Z,49.95
2022-11-03T06:24:36.708Z,55.38
2022-11-03T06:27:08.580Z,48.63
2022-11-03T06:29:37.186Z,49.92
2022-11-03T06:32:05.991Z,56.03
2022-11-03T06:34:47.738Z,54.42
2022-11-03T06:37:33.894Z,54.10
2022-11-03T06:40:22.518Z,50.47
2022-11-03T06:42:50.311Z,47.28
2022-11-03T06:45:23.025Z,52.78
2022-11-03T06:47:51.403Z,45.55
2022-11-03T06:50:44.622Z,59.90
2022-11-03T06:53:12.621Z,44.58
2022-11-03T06:55:41.009Z,45.90
2022-11-03T06:58:23.970Z,46.30
2022-11-03T07:00:52.220Z,52.05
2022-11-03T07:03:29.170Z,47.30
2022-11-03T07:06:11.200Z,43.58
2022-11-03T07:08:42.617Z,43.17
2022-11-03T07:11:19.209Z,46.58
2022-11-03T07:13:50.861Z,42.28
2022-11-03T07:16:38.621Z,39.15
2022-11-03T07:19:31.156Z,42.40
2022-11-03T07:22:00.055Z,42.78
2022-11-03T07:24:29.836Z,39.42
2022-11-03T07:27:42.358Z,38.22
2022-11-03T07:30:21.670Z,38.55
2022-11-03T07:32:52.455Z,39.08
2022-11-03T07:38:21.454Z,43.53
2022-11-03T07:40:49.795Z,39.40
2022-11-03T07:43:29.713Z,42.38
2022-11-03T07:45:59.271Z,42.75
2022-11-03T07:48:45.727Z,40.55
2022-11-03T07:51:23.839Z,42.50
2022-11-03T07:54:10.843Z,45.42
2022-11-03T07:56:40.274Z,40.63
2022-11-03T07:59:13.763Z,42.55
2022-11-03T08:01:54.101Z,42.30
2022-11-03T08:04:26.531Z,40.75
2022-11-03T08:06:54.508Z,44.90
2022-11-03T08:09:22.254Z,44.25
2022-11-03T08:11:50.982Z,46.40
2022-11-03T08:14:18.834Z,41.42
2022-11-03T08:16:49.433Z,43.17
2022-11-03T08:19:17.349Z,42.95
2022-11-03T08:21:45.627Z,43.13
2022-11-03T08:24:13.619Z,43.72
2022-11-03T08:26:41.351Z,41.83
2022-11-03T08:29:10.177Z,36.97
2022-11-03T08:31:39.537Z,35.70
2022-11-03T08:34:07.519Z,40.15
2022-11-03T08:36:36.802Z,38.80
2022-11-03T08:39:04.963Z,34.33
2022-11-03T10:44:19.932Z,31.73
2022-11-03T10:47:06.100Z,25.20
2022-11-03T10:52:40.094Z,31.80
2022-11-03T10:55:08.945Z,32.05
2022-11-03T10:57:37.662Z,27.58
2022-11-03T11:00:06.247Z,25.80
2022-11-03T11:02:36.686Z,25.25
2022-11-03T11:05:13.282Z,34.87
2022-11-03T11:07:43.814Z,21.80
2022-11-03T11:10:16.174Z,28.13
2022-11-03T11:13:03.498Z,39.08
2022-11-03T11:15:51.184Z,24.70
2022-11-03T11:18:29.520Z,28.58
2022-11-03T11:21:10.809Z,20.20
2022-11-03T11:23:39.323Z,21.52
2022-11-03T11:26:11.493Z,18.48
2022-11-03T11:28:47.216Z,20.65
2022-11-03T11:31:28.313Z,26.33
2022-11-03T11:34:17.499Z,28.65
2022-11-03T11:36:57.315Z,22.27
2022-11-03T11:39:28.106Z,26.70
2022-11-03T11:42:12.348Z,24.65
2022-11-03T11:44:51.848Z,19.13
2022-11-03T11:50:25.381Z,22.20
2022-11-03T11:53:11.470Z,20.83
2022-11-03T11:58:51.563Z,21.15
2022-11-03T12:01:23.530Z,24.83
2022-11-03T12:03:51.838Z,27.10
2022-11-03T12:06:35.188Z,26.98
2022-11-03T12:09:22.944Z,19.30
2022-11-03T12:11:56.203Z,22.90
2022-11-03T12:14:34.451Z,22.15
2022-11-03T12:17:22.476Z,22.63
2022-11-03T12:19:51.094Z,21.73
2022-11-03T12:22:24.854Z,22.35
2022-11-03T12:24:56.604Z,20.02
2022-11-03T12:27:24.156Z,24.88
2022-11-03T12:29:58.028Z,25.45
2022-11-03T12:32:34.160Z,22.92
2022-11-03T12:35:08.514Z,19.38
2022-11-03T12:37:36.788Z,21.20
2022-11-03T12:40:05.637Z,26.17
2022-11-03T12:42:33.336Z,25.15
2022-11-03T12:45:01.265Z,22.85
2022-11-03T12:47:29.063Z,20.40
2022-11-03T12:49:56.851Z,21.15
2022-11-03T12:52:24.912Z,21.65
2022-11-03T12:54:52.692Z,22.63
2022-11-03T12:57:20.861Z,23.20
2022-11-03T12:59:51.500Z,20.20
2022-11-03T13:02:19.446Z,21.60
2022-11-03T13:04:47.431Z,19.15
2022-11-03T13:07:16.473Z,26.00
2022-11-03T13:09:46.834Z,20.17
2022-11-03T13:12:32.543Z,18.65
2022-11-03T13:15:02.197Z,22.20
2022-11-03T13:17:35.944Z,21.58
2022-11-03T13:20:17.516Z,21.92
2022-11-03T13:22:45.597Z,21.35
2022-11-03T13:25:13.299Z,19.92
2022-11-03T13:27:41.126Z,24.23
2022-11-03T13:30:10.433Z,18.67
2022-11-03T13:32:38.622Z,25.33
2022-11-03T13:35:10.959Z,21.92
2022-11-03T13:37:41.906Z,20.77
2022-11-03T13:40:19.163Z,18.88
2022-11-03T13:42:57.247Z,21.75
2022-11-03T13:45:26.041Z,116.43
2022-11-03T13:50:42.652Z,156.15
2022-11-03T13:56:04.963Z,122.80
2022-11-03T14:01:25.076Z,34.22
2022-11-03T14:06:41.919Z,41.55
2022-11-03T14:09:09.607Z,42.00
2022-11-03T14:11:55.979Z,33.20
2022-11-03T14:14:24.157Z,41.30
2022-11-03T14:16:52.255Z,41.00
2022-11-03T14:19:20.276Z,45.28
2022-11-03T14:21:48.201Z,43.17
2022-11-03T14:24:16.092Z,85.32
2022-11-03T14:26:44.451Z,77.35
2022-11-03T14:29:12.135Z,71.75
2022-11-03T14:31:39.932Z,76.95
2022-11-03T14:34:07.699Z,82.18
2022-11-03T14:36:36.708Z,70.13
2022-11-03T14:39:04.679Z,59.50
2022-11-03T14:41:51.776Z,46.70
2022-11-03T14:44:19.800Z,59.10
2022-11-03T14:46:48.484Z,58.55
2022-11-03T14:49:16.459Z,59.28
2022-11-03T14:51:44.425Z,61.00
2022-11-03T14:54:12.959Z,59.20
2022-11-03T14:56:40.636Z,67.60
2022-11-03T14:59:08.317Z,69.30
2022-11-03T15:01:37.549Z,75.97
2022-11-03T15:04:05.605Z,72.65
2022-11-03T15:06:34.475Z,78.72
2022-11-03T15:09:03.739Z,79.40
2022-11-03T15:11:31.644Z,69.50
2022-11-03T15:14:02.807Z,84.45
2022-11-03T15:16:30.901Z,82.70
2022-11-03T15:18:59.557Z,83.18
2022-11-03T15:21:28.308Z,124.72
2022-11-03T15:26:45.034Z,181.32
2022-11-03T15:29:12.807Z,160.38
2022-11-03T15:31:46.197Z,350.25
2022-11-03T15:34:16.280Z,453.98
2022-11-03T15:36:44.026Z,145.02
2022-11-03T15:39:13.657Z,376.25
2022-11-03T15:41:42.667Z,112.20
2022-11-03T15:44:11.141Z,77.93
2022-11-03T15:46:38.973Z,80.65
2022-11-03T15:49:06.701Z,112.10
2022-11-03T15:51:34.468Z,121.93
2022-11-03T15:54:02.729Z,111.85
2022-11-03T15:56:30.613Z,122.75
2022-11-03T15:58:58.474Z,107.28
2022-11-03T16:01:26.604Z,108.55
2022-11-03T16:03:54.610Z,123.50
2022-11-03T16:06:40.267Z,112.32
2022-11-03T16:09:10.323Z,109.20
2022-11-03T16:11:38.017Z,124.90
2022-11-03T16:14:05.794Z,111.93
2022-11-03T16:16:33.910Z,104.10
2022-11-03T16:19:01.781Z,100.15
2022-11-03T16:21:30.136Z,100.68
2022-11-03T16:23:58.217Z,91.18
2022-11-03T16:26:25.964Z,102.25
2022-11-03T16:28:53.676Z,110.25
2022-11-03T16:31:21.479Z,111.88
2022-11-03T16:33:49.454Z,97.15
2022-11-03T16:36:18.864Z,116.05
2022-11-03T16:38:47.411Z,136.57
2022-11-03T16:41:15.268Z,103.07
2022-11-03T16:43:43.220Z,119.40
2022-11-03T16:46:10.941Z,130.75
2022-11-03T16:48:40.228Z,130.75
2022-11-03T16:51:08.398Z,130.98
2022-11-03T16:53:37.201Z,144.35
2022-11-03T16:56:05.336Z,162.00
2022-11-03T16:58:33.208Z,208.00
2022-11-03T17:01:01.871Z,250.85
2022-11-03T17:03:29.671Z,255.38
2022-11-03T17:05:58.221Z,237.57
2022-11-03T17:08:51.413Z,238.73
2022-11-03T17:11:14.563Z,234.52
2022-11-03T17:13:42.490Z,283.83
2022-11-03T17:16:11.626Z,326.50
2022-11-03T17:18:39.760Z,351.05
2022-11-03T17:21:07.652Z,327.02
2022-11-03T17:23:35.717Z,281.20
2022-11-03T19:48:41.019Z,43.15
2022-11-03T19:51:08.650Z,48.92
2022-11-03T19:53:36.210Z,43.45
2022-11-03T19:56:04.251Z,47.90
2022-11-03T19:58:31.991Z,49.45
2022-11-03T20:01:04.161Z,54.35
2022-11-03T20:03:35.122Z,55.45
2022-11-03T20:06:02.658Z,46.85
2022-11-03T20:08:32.393Z,49.15
2022-11-03T20:11:00.622Z,48.05
2022-11-03T20:13:39.580Z,60.13
2022-11-03T20:16:15.581Z,57.85
2022-11-03T20:18:43.992Z,53.70
2022-11-03T20:21:15.999Z,50.75
2022-11-03T20:23:43.778Z,55.47
2022-11-03T20:26:15.031Z,57.97
2022-11-03T20:28:45.032Z,60.22
2022-11-03T20:31:13.619Z,57.38
2022-11-03T20:33:41.355Z,59.78
2022-11-03T20:36:17.535Z,57.55
2022-11-03T20:38:59.464Z,66.93
2022-11-03T20:41:29.264Z,63.38
2022-11-03T20:43:56.949Z,54.88
2022-11-03T20:46:26.519Z,58.17
2022-11-03T20:48:55.518Z,63.28
2022-11-03T20:51:26.620Z,53.53
2022-11-03T20:53:55.862Z,57.65
2022-11-03T20:56:25.471Z,52.42
2022-11-03T20:58:53.330Z,70.80
2022-11-03T21:01:25.714Z,421.40
2022-11-03T21:04:01.571Z,65.00
2022-11-03T21:06:32.432Z,72.10
2022-11-03T21:09:00.279Z,59.15
2022-11-03T21:11:29.449Z,61.70
2022-11-03T21:14:01.395Z,58.85
2022-11-03T21:16:48.701Z,53.15
2022-11-03T21:19:36.071Z,58.97
2022-11-03T21:25:03.655Z,58.13
2022-11-03T21:27:32.192Z,51.97
2022-11-03T21:30:00.639Z,50.70
2022-11-03T21:32:28.339Z,48.60
2022-11-03T21:34:55.973Z,47.83
2022-11-03T21:37:23.829Z,40.55
2022-11-03T21:39:52.466Z,39.28
2022-11-03T21:42:38.552Z,44.55
2022-11-03T21:45:06.779Z,51.10
2022-11-03T21:47:34.459Z,41.67
2022-11-03T21:50:02.308Z,40.83
2022-11-03T21:52:33.056Z,45.45
2022-11-03T21:55:02.162Z,33.42
2022-11-03T21:57:29.836Z,45.17
2022-11-03T21:59:59.257Z,34.65
2022-11-03T22:02:27.945Z,34.08
2022-11-03T22:04:56.719Z,44.58
2022-11-03T22:07:24.409Z,38.10
2022-11-03T22:09:52.055Z,49.10
2022-11-03T22:12:19.717Z,46.70
2022-11-03T22:15:08.654Z,39.22
2022-11-03T22:17:37.777Z,51.00
2022-11-03T22:20:24.618Z,52.28
2022-11-03T22:23:10.647Z,61.67
2022-11-03T22:25:57.561Z,59.38
2022-11-03T22:28:25.161Z,65.13
2022-11-03T22:31:11.062Z,73.03
2022-11-03T22:33:58.639Z,70.50
2022-11-03T22:36:27.107Z,68.75
2022-11-03T22:39:23.750Z,64.35
2022-11-03T22:42:10.170Z,52.97
2022-11-03T22:44:56.247Z,58.47
2022-11-03T22:47:24.041Z,57.50
2022-11-03T22:49:51.606Z,52.63
2022-11-03T22:52:19.266Z,54.22
2022-11-03T22:54:47.272Z,53.78
2022-11-03T22:57:14.975Z,54.72
2022-11-03T22:59:42.771Z,49.67
2022-11-03T23:02:10.737Z,43.67
2022-11-03T23:04:38.319Z,43.65
2022-11-03T23:07:06.233Z,42.72
2022-11-03T23:09:38.195Z,36.35
2022-11-03T23:12:06.174Z,28.95
2022-11-03T23:14:53.913Z,31.55
2022-11-03T23:17:41.975Z,25.10
2022-11-03T23:20:28.101Z,24.13
2022-11-03T23:22:55.808Z,23.60
2022-11-03T23:25:23.442Z,23.88
2022-11-03T23:27:52.803Z,20.80
2022-11-03T23:30:20.709Z,24.48
2022-11-03T23:32:49.782Z,23.30
2022-11-03T23:35:17.809Z,23.20
2022-11-03T23:37:46.138Z,21.10
2022-11-03T23:40:17.184Z,20.25
2022-11-03T23:42:48.841Z,15.60
2022-11-03T23:45:35.433Z,15.68
2022-11-03T23:48:21.632Z,11.10
2022-11-03T23:50:50.991Z,15.68
2022-11-03T23:53:18.703Z,16.40
2022-11-03T23:56:04.790Z,12.88
2022-11-03T23:58:33.149Z,11.50
